Time;durP1;ratioP1;P1;durP2;ratioP2;P2;SDS_P1;SDS_P2;PMS_P1;PMS_P2;Temp;Humidity;BMP_temperature;BMP_pressure;BME280_temperature;BME280_humidity;BME280_pressure;Samples;Min_cycle;Max_cycle;Signal;HPM_P1;HPM_P2
2022/10/08 00:00:56;;;;;;;10.13;4.80;;;21.00;65.00;;;;;;4960068;28;86917;-83
2022/10/08 00:03:23;;;;;;;13.05;5.15;;;21.00;65.20;;;;;;4957929;28;87766;-83
2022/10/08 00:06:09;;;;;;;12.18;4.78;;;21.00;65.20;;;;;;4958610;28;87754;-83
2022/10/08 00:08:37;;;;;;;11.73;5.20;;;21.00;65.40;;;;;;4941273;28;95221;-83
2022/10/08 00:11:06;;;;;;;9.30;4.57;;;21.00;65.30;;;;;;4957750;28;88410;-83
2022/10/08 00:13:39;;;;;;;13.70;5.15;;;21.00;65.40;;;;;;4940086;28;88404;-83
2022/10/08 00:16:12;;;;;;;9.27;4.40;;;21.00;65.40;;;;;;4957467;28;88288;-83
2022/10/08 00:18:43;;;;;;;11.93;5.43;;;21.00;65.30;;;;;;4957074;28;89245;-83
2022/10/08 00:21:15;;;;;;;9.35;4.78;;;21.00;65.30;;;;;;4957578;28;87279;-83
2022/10/08 00:23:42;;;;;;;9.68;4.93;;;21.00;65.10;;;;;;4958574;28;87249;-83
2022/10/08 00:26:08;;;;;;;9.93;4.57;;;21.00;65.30;;;;;;4956785;28;87978;-83
2022/10/08 00:28:35;;;;;;;11.13;4.63;;;21.00;65.30;;;;;;4957403;28;89106;-83
2022/10/08 00:31:09;;;;;;;10.88;5.13;;;21.00;65.20;;;;;;4950499;28;87024;-80
2022/10/08 00:33:36;;;;;;;11.68;4.95;;;20.90;65.30;;;;;;4958305;28;87797;-83
2022/10/08 00:36:07;;;;;;;10.32;4.65;;;20.90;65.30;;;;;;4947762;28;91665;-83
2022/10/08 00:38:34;;;;;;;10.10;4.82;;;20.90;65.20;;;;;;4959764;28;87312;-83
2022/10/08 00:41:00;;;;;;;8.38;4.03;;;20.90;65.30;;;;;;4960256;28;87713;-83
2022/10/08 00:43:44;;;;;;;8.00;4.35;;;20.90;65.30;;;;;;4948848;28;86988;-83
2022/10/08 00:46:24;;;;;;;9.85;4.65;;;20.90;65.20;;;;;;4973238;28;89324;-83
2022/10/08 00:49:14;;;;;;;9.77;4.68;;;20.90;65.20;;;;;;4951144;28;87713;-83
2022/10/08 00:51:43;;;;;;;9.68;4.90;;;20.90;65.30;;;;;;4959362;28;87381;-83
2022/10/08 00:54:09;;;;;;;10.07;4.72;;;20.90;65.10;;;;;;4960012;28;86568;-83
2022/10/08 00:56:37;;;;;;;7.47;4.47;;;20.90;65.00;;;;;;4961184;28;87059;-83
2022/10/08 00:59:03;;;;;;;8.63;4.38;;;20.90;64.90;;;;;;4958699;28;89989;-83
2022/10/08 01:01:29;;;;;;;11.13;4.75;;;20.90;64.90;;;;;;4959819;28;88236;-83
2022/10/08 01:03:56;;;;;;;9.30;4.57;;;20.90;65.00;;;;;;4960180;28;87268;-83
2022/10/08 01:06:28;;;;;;;8.95;4.43;;;20.90;65.10;;;;;;4960332;28;88752;-83
2022/10/08 01:09:16;;;;;;;7.55;4.18;;;20.90;65.10;;;;;;4962825;28;88079;-83
2022/10/08 01:11:52;;;;;;;8.23;4.18;;;20.90;65.20;;;;;;4963775;28;87393;-83
2022/10/08 01:14:46;;;;;;;9.82;4.35;;;20.90;65.30;;;;;;4962468;28;87412;-83
2022/10/08 01:17:39;;;;;;;10.10;4.53;;;20.80;65.30;;;;;;4962708;28;88355;-83
2022/10/08 01:20:14;;;;;;;8.23;3.90;;;20.90;65.20;;;;;;4962776;28;88545;-83
2022/10/08 01:22:57;;;;;;;8.88;4.47;;;20.90;65.10;;;;;;4962564;28;87609;-83
2022/10/08 01:25:38;;;;;;;9.38;4.53;;;20.90;65.20;;;;;;4962285;28;87378;-83
2022/10/08 01:28:44;;;;;;;9.15;4.05;;;20.80;64.90;;;;;;4962312;28;89522;-83
2022/10/08 01:31:29;;;;;;;9.05;4.28;;;20.80;65.10;;;;;;4940166;28;88978;-82
2022/10/08 01:34:17;;;;;;;9.43;4.18;;;20.80;65.00;;;;;;4940910;28;87616;-83
2022/10/08 01:36:47;;;;;;;9.43;4.20;;;20.80;65.00;;;;;;4940228;28;87244;-82
2022/10/08 01:39:16;;;;;;;8.68;4.20;;;20.80;64.90;;;;;;4939413;28;88585;-83
2022/10/08 01:41:47;;;;;;;7.07;3.63;;;20.90;65.00;;;;;;4941044;28;87468;-83
2022/10/08 01:44:38;;;;;;;10.93;4.40;;;20.80;64.90;;;;;;4923643;28;87185;-83
2022/10/08 01:47:07;;;;;;;8.73;4.32;;;20.80;65.00;;;;;;4940797;28;86838;-83
2022/10/08 01:49:41;;;;;;;7.88;3.90;;;20.80;64.80;;;;;;4939723;28;88832;-83
2022/10/08 01:52:20;;;;;;;11.15;5.30;;;20.80;65.00;;;;;;4940200;28;88535;-83
2022/10/08 01:54:48;;;;;;;8.25;3.97;;;20.80;65.00;;;;;;4922827;28;88282;-83
2022/10/08 01:57:14;;;;;;;8.43;4.28;;;20.80;64.90;;;;;;4940566;28;87422;-83
2022/10/08 01:59:53;;;;;;;7.07;3.78;;;20.80;64.80;;;;;;4941171;28;87620;-83
2022/10/08 02:02:22;;;;;;;7.70;3.85;;;20.80;64.90;;;;;;4939596;28;91408;-83
2022/10/08 02:04:50;;;;;;;7.53;3.67;;;20.80;65.00;;;;;;4941057;28;88020;-83
2022/10/08 02:07:23;;;;;;;9.45;4.65;;;20.70;65.00;;;;;;4928735;28;91298;-84
2022/10/08 02:09:53;;;;;;;5.85;3.30;;;20.80;64.90;;;;;;4961514;28;88424;-83
2022/10/08 02:12:21;;;;;;;6.72;3.72;;;20.80;65.20;;;;;;4962975;28;88300;-83
2022/10/08 02:14:53;;;;;;;8.05;3.95;;;20.80;64.90;;;;;;4962815;28;87344;-84
2022/10/08 02:17:36;;;;;;;7.40;3.47;;;20.80;64.90;;;;;;4961573;28;90554;-83
2022/10/08 02:20:25;;;;;;;8.00;3.80;;;20.70;64.80;;;;;;4975261;28;92949;-84
2022/10/08 02:23:09;;;;;;;7.75;4.13;;;20.80;64.90;;;;;;4959522;28;92680;-84
2022/10/08 02:25:52;;;;;;;6.55;3.95;;;20.80;64.90;;;;;;4962264;28;86988;-83
2022/10/08 02:28:25;;;;;;;6.85;3.90;;;20.80;64.90;;;;;;4977016;28;90477;-83
2022/10/08 02:30:55;;;;;;;7.78;3.72;;;20.70;64.80;;;;;;4960523;28;91694;-83
2022/10/08 02:33:25;;;;;;;;;;;20.80;64.90;;;;;;4977476;28;91398;-83
2022/10/08 02:35:54;;;;;;;8.40;4.30;;;20.70;64.90;;;;;;4964259;28;86910;-84
2022/10/08 02:38:26;;;;;;;7.97;3.92;;;20.70;64.90;;;;;;4961408;28;91200;-83
2022/10/08 02:40:57;;;;;;;8.00;3.88;;;20.70;65.00;;;;;;4962167;28;87615;-83
2022/10/08 02:43:29;;;;;;;6.35;3.78;;;20.70;65.00;;;;;;4961878;28;87480;-83
2022/10/08 02:46:03;;;;;;;6.75;3.33;;;20.70;65.00;;;;;;4976321;28;88709;-84
2022/10/08 02:48:31;;;;;;;6.30;3.70;;;20.70;64.80;;;;;;4961896;28;87205;-83
2022/10/08 02:51:04;;;;;;;9.05;4.20;;;20.70;64.90;;;;;;4961050;28;88499;-84
2022/10/08 02:53:31;;;;;;;8.63;3.50;;;20.70;65.00;;;;;;4961401;28;88845;-83
2022/10/08 02:55:59;;;;;;;7.93;4.25;;;20.70;64.90;;;;;;4961021;28;86905;-83
2022/10/08 02:58:25;;;;;;;7.95;3.88;;;20.80;64.90;;;;;;4962191;28;87883;-83
2022/10/08 03:01:08;;;;;;;7.32;3.72;;;20.80;64.80;;;;;;4959901;28;90444;-84
2022/10/08 03:03:42;;;;;;;8.07;3.60;;;20.70;64.80;;;;;;4960865;28;86999;-83
2022/10/08 03:06:09;;;;;;;8.18;3.65;;;20.70;64.80;;;;;;4961463;28;87143;-83
2022/10/08 03:08:40;;;;;;;6.90;3.60;;;20.70;64.80;;;;;;4961651;28;87809;-83
2022/10/08 03:11:06;;;;;;;6.88;3.72;;;20.70;65.00;;;;;;4960616;28;89619;-83
2022/10/08 03:13:39;;;;;;;6.88;3.45;;;20.70;64.80;;;;;;4959812;28;89891;-83
2022/10/08 03:16:07;;;;;;;6.88;3.55;;;20.70;64.80;;;;;;4961404;28;86768;-84
2022/10/08 03:18:34;;;;;;;9.98;4.25;;;20.70;64.80;;;;;;4961362;28;91017;-83
2022/10/08 03:21:00;;;;;;;8.00;3.80;;;20.70;64.80;;;;;;4960193;28;90739;-83
2022/10/08 03:23:26;;;;;;;6.65;3.20;;;20.70;65.10;;;;;;4961988;28;88356;-84
2022/10/08 03:25:57;;;;;;;5.28;3.42;;;20.70;64.80;;;;;;4959241;28;87120;-84
2022/10/08 03:28:22;;;;;;;6.53;3.70;;;20.70;64.80;;;;;;4961028;28;86598;-84
2022/10/08 03:30:48;;;;;;;7.63;3.58;;;20.70;64.80;;;;;;4960381;28;88323;-83
2022/10/08 03:33:13;;;;;;;7.57;4.13;;;20.70;64.60;;;;;;4960200;28;87335;-83
2022/10/08 03:35:46;;;;;;;5.68;3.70;;;20.70;64.50;;;;;;4959744;28;88481;-83
2022/10/08 03:38:16;;;;;;;8.90;3.95;;;20.70;64.70;;;;;;4960991;28;87227;-83
2022/10/08 03:40:42;;;;;;;7.30;3.75;;;20.70;64.70;;;;;;4961166;28;88766;-83
2022/10/08 03:43:08;;;;;;;7.05;3.53;;;20.70;64.60;;;;;;4959876;28;87661;-83
2022/10/08 03:45:33;;;;;;;5.65;3.28;;;20.70;64.50;;;;;;4958927;28;87374;-83
2022/10/08 03:47:59;;;;;;;5.95;3.33;;;20.70;64.60;;;;;;4961552;28;87194;-83
2022/10/08 03:50:24;;;;;;;6.55;3.50;;;20.70;64.70;;;;;;4960801;28;88587;-84
2022/10/08 03:52:50;;;;;;;6.22;3.47;;;20.70;64.60;;;;;;4961107;28;88173;-83
2022/10/08 03:55:15;;;;;;;5.97;3.53;;;20.70;64.70;;;;;;4960493;28;87511;-83
2022/10/08 03:57:41;;;;;;;6.53;3.55;;;20.70;64.60;;;;;;4960519;28;86868;-83
2022/10/08 04:00:07;;;;;;;5.97;3.50;;;20.60;64.60;;;;;;4958426;28;91567;-83
2022/10/08 04:02:33;;;;;;;5.57;3.10;;;20.70;64.80;;;;;;4960401;28;88161;-83
2022/10/08 04:04:58;;;;;;;6.05;3.10;;;20.70;64.70;;;;;;4961180;28;86958;-84
2022/10/08 04:07:24;;;;;;;6.80;3.40;;;20.70;64.80;;;;;;4960811;28;87290;-83
2022/10/08 04:09:49;;;;;;;8.20;3.63;;;20.70;64.70;;;;;;4960831;28;88792;-84
2022/10/08 04:12:15;;;;;;;5.88;3.58;;;20.60;64.60;;;;;;4958699;28;91145;-83
2022/10/08 04:14:41;;;;;;;5.10;3.35;;;20.70;64.50;;;;;;4959193;28;87591;-84
2022/10/08 04:17:06;;;;;;;5.40;3.08;;;20.70;64.50;;;;;;4961498;28;86243;-83
2022/10/08 04:19:32;;;;;;;4.50;2.80;;;20.70;64.60;;;;;;4959310;28;87286;-83
2022/10/08 04:21:57;;;;;;;7.03;3.60;;;20.70;64.60;;;;;;4960493;28;86926;-84
2022/10/08 04:24:23;;;;;;;6.18;3.50;;;20.70;64.70;;;;;;4959686;28;89969;-83
2022/10/08 04:26:48;;;;;;;6.93;3.03;;;20.70;65.30;;;;;;4960683;28;87490;-83
2022/10/08 04:29:14;;;;;;;4.70;2.97;;;20.70;65.20;;;;;;4959794;28;88510;-83
2022/10/08 04:31:40;;;;;;;5.25;3.25;;;20.70;65.20;;;;;;4958662;28;91266;-84
2022/10/08 04:34:05;;;;;;;5.47;2.97;;;20.60;65.20;;;;;;4961260;28;87357;-83
2022/10/08 04:36:31;;;;;;;5.50;2.80;;;20.60;65.20;;;;;;4959989;28;87525;-84
2022/10/08 04:38:56;;;;;;;5.70;3.58;;;20.70;65.90;;;;;;4960532;28;88539;-84
2022/10/08 04:41:25;;;;;;;6.07;3.10;;;20.60;65.00;;;;;;4962542;28;87251;-84
2022/10/08 04:43:51;;;;;;;6.35;3.47;;;20.70;65.00;;;;;;4963427;28;87353;-83
2022/10/08 04:46:20;;;;;;;5.00;2.88;;;20.60;64.90;;;;;;4978637;28;90775;-84
2022/10/08 04:48:50;;;;;;;6.65;3.17;;;20.60;65.00;;;;;;4962388;28;88455;-84
2022/10/08 04:51:17;;;;;;;5.53;3.28;;;20.60;65.20;;;;;;4962946;28;89124;-84
2022/10/08 04:53:46;;;;;;;4.82;2.97;;;20.60;64.90;;;;;;4963643;28;87264;-84
2022/10/08 04:56:20;;;;;;;5.25;2.78;;;20.60;65.00;;;;;;4951796;28;87359;-83
2022/10/08 04:58:46;;;;;;;6.07;3.20;;;20.60;64.90;;;;;;4963258;28;87707;-84
2022/10/08 05:01:15;;;;;;;3.95;2.50;;;20.70;64.90;;;;;;4962521;28;88156;-84
2022/10/08 05:03:45;;;;;;;7.38;4.05;;;20.60;64.80;;;;;;4963299;28;87456;-84
2022/10/08 05:06:11;;;;;;;5.43;3.15;;;20.70;64.80;;;;;;4962315;28;86810;-83
2022/10/08 05:08:37;;;;;;;5.47;3.00;;;20.60;64.80;;;;;;4961004;28;87854;-84
2022/10/08 05:11:04;;;;;;;4.78;2.90;;;20.60;65.00;;;;;;4962119;28;88363;-83
2022/10/08 05:13:30;;;;;;;7.50;3.15;;;20.60;64.90;;;;;;4961266;28;88458;-83
2022/10/08 05:15:55;;;;;;;4.80;2.67;;;20.70;64.70;;;;;;4961854;28;86900;-84
2022/10/08 05:18:21;;;;;;;6.88;2.88;;;20.70;64.50;;;;;;4961598;28;88440;-84
2022/10/08 05:20:47;;;;;;;6.20;3.55;;;20.70;64.70;;;;;;4962898;28;88538;-84
2022/10/08 05:23:16;;;;;;;4.35;2.60;;;20.70;65.20;;;;;;4962614;28;87298;-84
2022/10/08 05:25:41;;;;;;;5.72;3.28;;;20.80;65.00;;;;;;4961008;28;87104;-85
2022/10/08 05:28:07;;;;;;;9.70;3.50;;;20.80;65.00;;;;;;4960560;28;91416;-85
2022/10/08 05:30:33;;;;;;;6.25;3.30;;;20.70;65.50;;;;;;4961602;28;91557;-83
2022/10/08 05:32:58;;;;;;;5.20;3.10;;;20.70;65.70;;;;;;4962682;28;87390;-84
2022/10/08 05:35:24;;;;;;;5.43;3.55;;;20.70;65.60;;;;;;4962461;28;87303;-83
2022/10/08 05:37:50;;;;;;;6.35;3.47;;;20.80;65.50;;;;;;4960842;28;92282;-83
2022/10/08 05:40:15;;;;;;;7.00;3.33;;;20.70;65.30;;;;;;4952475;28;92216;-83
2022/10/08 05:42:41;;;;;;;6.45;2.88;;;20.80;65.60;;;;;;4963550;28;87458;-83
2022/10/08 05:45:07;;;;;;;7.18;3.53;;;20.70;65.60;;;;;;4953126;28;87399;-83
2022/10/08 05:47:32;;;;;;;5.97;3.45;;;20.70;65.50;;;;;;4961762;28;90139;-83
2022/10/08 05:49:58;;;;;;;8.38;3.88;;;20.70;65.40;;;;;;4960454;28;92080;-83
2022/10/08 05:52:25;;;;;;;6.00;3.20;;;20.70;65.40;;;;;;4959988;28;87358;-83
2022/10/08 05:54:51;;;;;;;4.97;3.30;;;20.70;65.40;;;;;;4961076;28;88949;-84
2022/10/08 05:57:17;;;;;;;6.28;3.25;;;20.70;65.50;;;;;;4942864;28;88149;-83
2022/10/08 05:59:42;;;;;;;6.15;3.38;;;20.70;65.60;;;;;;4943458;28;87351;-83
2022/10/08 06:02:09;;;;;;;6.00;3.08;;;20.70;65.70;;;;;;4941342;28;88236;-83
2022/10/08 06:04:35;;;;;;;5.22;2.90;;;20.60;65.50;;;;;;4942887;28;87556;-84
2022/10/08 06:07:00;;;;;;;5.63;3.05;;;20.60;65.60;;;;;;4941002;28;91308;-83
2022/10/08 06:09:26;;;;;;;4.75;2.85;;;20.60;65.90;;;;;;4940979;28;90324;-84
2022/10/08 06:11:52;;;;;;;6.57;3.28;;;20.60;65.80;;;;;;4943238;28;87549;-84
2022/10/08 06:14:19;;;;;;;10.18;3.35;;;20.60;65.60;;;;;;4942755;28;87691;-83
2022/10/08 06:16:45;;;;;;;4.00;2.97;;;20.60;65.70;;;;;;4942434;28;88424;-84
2022/10/08 06:19:10;;;;;;;4.45;2.80;;;20.60;65.80;;;;;;4942907;28;88325;-82
2022/10/08 06:21:36;;;;;;;4.57;2.75;;;20.60;65.90;;;;;;4941733;28;87544;-83
2022/10/08 06:24:05;;;;;;;5.68;3.60;;;20.60;65.70;;;;;;4956252;28;89759;-83
2022/10/08 06:26:34;;;;;;;5.07;3.03;;;20.60;65.80;;;;;;4942944;28;89071;-83
2022/10/08 06:29:00;;;;;;;4.57;2.88;;;20.60;66.00;;;;;;4942540;28;87563;-83
2022/10/08 06:31:25;;;;;;;6.22;3.45;;;20.60;66.00;;;;;;4943983;28;87185;-83
2022/10/08 06:33:56;;;;;;;8.10;3.22;;;20.60;65.70;;;;;;4942396;28;87293;-84
2022/10/08 06:36:27;;;;;;;4.18;2.40;;;20.60;65.40;;;;;;4943748;28;88102;-83
2022/10/08 06:39:01;;;;;;;7.90;2.33;;;20.70;65.40;;;;;;4946447;28;88828;-84
2022/10/08 06:41:34;;;;;;;7.82;3.15;;;20.70;65.50;;;;;;4941573;28;87290;-83
2022/10/08 06:44:06;;;;;;;7.63;3.35;;;20.70;65.40;;;;;;4942273;28;86609;-83
2022/10/08 06:46:41;;;;;;;5.80;3.35;;;20.80;65.20;;;;;;4942568;28;87449;-86
2022/10/08 06:49:09;;;;;;;12.75;2.92;;;20.90;65.20;;;;;;4942635;28;87579;-86
2022/10/08 06:51:35;;;;;;;12.88;4.22;;;20.90;64.70;;;;;;4941723;28;88419;-85
2022/10/08 06:54:01;;;;;;;20.75;4.38;;;20.90;64.20;;;;;;4940857;28;90684;-85
2022/10/08 06:56:27;;;;;;;10.80;3.13;;;21.00;64.10;;;;;;4954032;28;91232;-83
2022/10/08 06:58:52;;;;;;;9.25;3.33;;;21.00;64.20;;;;;;4961418;28;87137;-85
2022/10/08 07:01:20;;;;;;;16.55;4.38;;;21.00;64.50;;;;;;4961534;28;87595;-85
2022/10/08 07:03:53;;;;;;;14.82;4.45;;;21.00;64.60;;;;;;4959483;28;89930;-84
2022/10/08 07:06:20;;;;;;;20.98;5.07;;;21.10;64.40;;;;;;4962240;28;88657;-86
2022/10/08 07:08:46;;;;;;;22.67;5.60;;;21.10;64.40;;;;;;4962638;28;87400;-86
2022/10/08 07:11:15;;;;;;;19.00;4.65;;;21.20;64.50;;;;;;4961887;28;87354;-86
2022/10/08 07:13:41;;;;;;;22.43;5.93;;;21.10;64.60;;;;;;4960650;28;87434;-85
2022/10/08 07:16:13;;;;;;;21.23;5.75;;;21.20;64.60;;;;;;4960930;28;89293;-85
2022/10/08 07:18:40;;;;;;;38.47;7.70;;;21.20;64.70;;;;;;4961414;28;88522;-88
2022/10/08 07:21:07;;;;;;;25.10;6.00;;;21.20;64.90;;;;;;4961266;28;87210;-85
2022/10/08 07:23:33;;;;;;;29.42;6.88;;;21.20;65.00;;;;;;4976134;28;90467;-86
2022/10/08 07:26:00;;;;;;;44.67;9.48;;;21.20;65.00;;;;;;4961524;28;87554;-85
2022/10/08 07:28:28;;;;;;;41.75;7.95;;;21.20;64.90;;;;;;4961370;28;87484;-86
2022/10/08 07:30:54;;;;;;;49.20;9.27;;;21.30;64.80;;;;;;4963011;28;87614;-86
2022/10/08 07:33:19;;;;;;;38.40;8.85;;;21.20;65.00;;;;;;4960605;28;89828;-85
2022/10/08 07:35:45;;;;;;;47.20;11.00;;;21.20;64.70;;;;;;4962701;28;91358;-84
2022/10/08 07:38:11;;;;;;;45.40;9.32;;;21.20;64.60;;;;;;4960443;28;87883;-85
2022/10/08 07:40:37;;;;;;;33.40;8.88;;;21.30;64.70;;;;;;4958787;28;88450;-85
2022/10/08 07:43:03;;;;;;;36.80;9.40;;;21.20;65.00;;;;;;4960929;28;87509;-85
2022/10/08 07:45:30;;;;;;;38.78;8.75;;;21.20;64.80;;;;;;4960210;28;88580;-84
2022/10/08 07:47:56;;;;;;;37.97;8.88;;;21.20;65.10;;;;;;4960152;28;88507;-83
2022/10/08 07:50:23;;;;;;;34.05;9.93;;;21.20;64.70;;;;;;4960417;28;87667;-83
2022/10/08 07:52:48;;;;;;;29.80;9.63;;;21.20;64.40;;;;;;4960983;28;87202;-84
2022/10/08 07:55:14;;;;;;;44.90;10.90;;;21.20;64.50;;;;;;4960415;28;89451;-83
2022/10/08 07:57:40;;;;;;;47.72;14.57;;;21.20;64.10;;;;;;4959452;28;88004;-84
2022/10/08 08:00:07;;;;;;;53.13;14.63;;;21.30;62.00;;;;;;4959791;28;87396;-83
2022/10/08 08:02:33;;;;;;;46.95;13.00;;;21.40;61.60;;;;;;4959710;28;87344;-84
2022/10/08 08:05:01;;;;;;;47.70;13.90;;;21.50;61.30;;;;;;4958750;28;89211;-84
2022/10/08 08:07:27;;;;;;;63.95;16.25;;;21.50;60.90;;;;;;4957542;28;90778;-84
2022/10/08 08:09:52;;;;;;;50.33;12.93;;;21.40;62.10;;;;;;4958261;28;86933;-84
2022/10/08 08:12:18;;;;;;;41.40;12.15;;;21.40;61.50;;;;;;4959597;28;87280;-86
2022/10/08 08:14:43;;;;;;;40.30;11.15;;;21.40;61.40;;;;;;4929540;28;87578;-83
2022/10/08 08:17:09;;;;;;;42.10;13.10;;;21.40;61.20;;;;;;4962259;28;88389;-85
2022/10/08 08:19:39;;;;;;;45.97;13.13;;;21.40;62.00;;;;;;4963521;28;87108;-84
2022/10/08 08:22:04;;;;;;;52.40;15.05;;;21.30;62.30;;;;;;4963759;28;87514;-85
2022/10/08 08:24:31;;;;;;;51.30;13.65;;;21.30;63.50;;;;;;4962328;28;87804;-84
2022/10/08 08:26:56;;;;;;;54.20;14.25;;;21.30;64.10;;;;;;4962755;28;88940;-85
2022/10/08 08:29:22;;;;;;;51.67;14.20;;;21.20;64.00;;;;;;4963911;28;88595;-84
2022/10/08 08:31:48;;;;;;;43.20;13.35;;;21.20;63.80;;;;;;4962531;28;87316;-84
2022/10/08 08:34:17;;;;;;;40.80;12.45;;;21.20;65.20;;;;;;4977705;28;91823;-85
2022/10/08 08:36:45;;;;;;;45.25;13.35;;;21.20;63.70;;;;;;4961292;28;91068;-85
2022/10/08 08:39:30;;;;;;;51.63;12.70;;;21.20;64.20;;;;;;4961583;28;87835;-82
2022/10/08 08:42:07;;;;;;;51.55;13.68;;;21.20;65.00;;;;;;4963271;28;87473;-82
2022/10/08 08:44:40;;;;;;;47.35;13.30;;;21.20;65.10;;;;;;4961911;28;88395;-83
2022/10/08 08:47:28;;;;;;;50.20;12.95;;;21.20;65.20;;;;;;4962880;28;88141;-82
2022/10/08 08:49:59;;;;;;;44.50;11.32;;;21.20;65.40;;;;;;4920808;28;87664;-82
2022/10/08 08:52:32;;;;;;;42.35;12.43;;;21.20;65.20;;;;;;4919700;28;87289;-82
2022/10/08 08:55:00;;;;;;;37.50;10.73;;;21.20;65.60;;;;;;4921180;28;88498;-82
2022/10/08 08:57:37;;;;;;;37.25;11.77;;;21.20;65.80;;;;;;4919862;28;89348;-82
2022/10/08 09:00:27;;;;;;;41.33;11.20;;;21.20;66.10;;;;;;4920351;28;86991;-84
2022/10/08 09:02:57;;;;;;;35.97;10.95;;;21.20;65.70;;;;;;4920333;28;87492;-82
2022/10/08 09:05:31;;;;;;;40.78;11.57;;;21.30;65.90;;;;;;4904566;28;91942;-83
2022/10/08 09:08:32;;;;;;;36.80;10.85;;;21.30;65.50;;;;;;4922364;28;88717;-83
2022/10/08 09:11:06;;;;;;;35.50;11.95;;;21.30;65.60;;;;;;4874978;28;87029;-85
2022/10/08 09:14:08;;;;;;;42.15;11.55;;;21.30;65.70;;;;;;4825064;29;88051;-84
2022/10/08 09:16:37;;;;;;;44.88;12.15;;;21.30;65.90;;;;;;4843414;29;90160;-84
2022/10/08 09:19:03;;;;;;;36.78;9.80;;;21.30;66.00;;;;;;4843124;29;87630;-84
2022/10/08 09:21:32;;;;;;;35.30;10.63;;;21.30;65.90;;;;;;4831216;29;88675;-84
2022/10/08 09:23:57;;;;;;;35.77;10.17;;;21.30;66.20;;;;;;4836865;29;88101;-84
2022/10/08 09:26:28;;;;;;;35.08;9.73;;;21.30;65.90;;;;;;4850496;28;88499;-84
2022/10/08 09:28:56;;;;;;;32.65;10.23;;;21.30;66.10;;;;;;4873957;28;87508;-84
2022/10/08 09:31:44;;;;;;;36.15;11.65;;;21.40;66.20;;;;;;4872095;28;87316;-84
2022/10/08 09:34:09;;;;;;;37.17;11.23;;;21.40;66.20;;;;;;4871170;28;87666;-83
2022/10/08 09:37:02;;;;;;;33.17;10.05;;;21.50;66.00;;;;;;4870961;28;89418;-84
2022/10/08 09:39:33;;;;;;;29.88;10.30;;;21.50;65.60;;;;;;4871610;28;89074;-85
2022/10/08 09:42:17;;;;;;;31.65;9.50;;;21.60;65.60;;;;;;4873554;28;87475;-85
2022/10/08 09:44:59;;;;;;;28.13;9.18;;;21.60;65.20;;;;;;4873578;28;87036;-85
2022/10/08 09:47:26;;;;;;;32.63;9.05;;;21.60;65.20;;;;;;4934386;28;93729;-83
2022/10/08 09:50:11;;;;;;;28.95;8.77;;;21.60;64.80;;;;;;4960167;28;91334;-86
2022/10/08 09:52:39;;;;;;;30.08;9.70;;;21.70;64.60;;;;;;4962868;28;87376;-85
2022/10/08 09:55:15;;;;;;;26.38;8.98;;;21.70;64.40;;;;;;4961352;28;87506;-85
2022/10/08 09:57:48;;;;;;;24.50;9.27;;;21.80;64.60;;;;;;4962002;28;87274;-85
2022/10/08 10:00:35;;;;;;;30.02;9.00;;;21.80;65.00;;;;;;4960306;28;90550;-86
2022/10/08 10:03:04;;;;;;;33.17;8.77;;;21.90;65.40;;;;;;4975724;28;87684;-85
2022/10/08 10:05:33;;;;;;;24.02;8.52;;;21.90;65.80;;;;;;4961005;28;89035;-85
2022/10/08 10:07:59;;;;;;;25.63;7.70;;;22.00;65.70;;;;;;4962358;28;88934;-83
2022/10/08 10:10:34;;;;;;;34.80;9.55;;;22.10;66.20;;;;;;4962148;28;87677;-87
2022/10/08 10:13:09;;;;;;;23.60;7.97;;;22.10;65.80;;;;;;4975994;28;88413;-87
2022/10/08 10:16:00;;;;;;;25.98;7.80;;;22.10;65.20;;;;;;4962659;28;87097;-85
2022/10/08 10:18:35;;;;;;;199.25;25.90;;;22.10;63.30;;;;;;4960335;28;91174;-86
2022/10/08 10:21:04;;;;;;;103.88;16.48;;;22.00;63.10;;;;;;4960868;28;88367;-86
2022/10/08 10:23:45;;;;;;;110.28;15.70;;;22.10;63.80;;;;;;4961389;28;87400;-85
2022/10/08 10:26:14;;;;;;;88.50;13.68;;;22.10;63.90;;;;;;4961169;28;88045;-89
2022/10/08 10:28:55;;;;;;;92.25;14.10;;;22.10;63.20;;;;;;4962512;28;87494;-88
2022/10/08 10:31:34;;;;;;;97.25;13.52;;;22.10;63.10;;;;;;4962639;28;86938;-89
2022/10/08 10:34:09;;;;;;;85.05;13.35;;;22.00;62.50;;;;;;4976815;28;87151;-88
2022/10/08 10:36:51;;;;;;;75.45;12.45;;;22.00;63.00;;;;;;4962874;28;87313;-87
2022/10/08 10:39:27;;;;;;;81.20;12.48;;;22.00;63.40;;;;;;4960278;28;88251;-89
2022/10/08 10:42:01;;;;;;;71.95;13.40;;;22.00;63.70;;;;;;4962340;28;89791;-89
2022/10/08 10:44:35;;;;;;;72.43;12.02;;;22.00;63.80;;;;;;4962231;28;87498;-89
2022/10/08 10:47:03;;;;;;;73.88;11.90;;;22.00;64.00;;;;;;4960959;28;87869;-89
2022/10/08 10:49:37;;;;;;;57.13;10.23;;;22.00;63.70;;;;;;4963866;28;89273;-87
2022/10/08 10:52:11;;;;;;;37.00;9.35;;;22.10;63.00;;;;;;4961065;28;87903;-87
2022/10/08 10:55:17;;;;;;;38.97;8.15;;;22.20;60.60;;;;;;4978383;28;86923;-93
2022/10/08 10:58:01;;;;;;;51.53;10.30;;;22.30;59.70;;;;;;4955482;28;91331;-90
2022/10/08 11:00:47;;;;;;;47.20;9.77;;;22.40;61.80;;;;;;4962080;28;88745;-92
2022/10/08 11:03:28;;;;;;;43.75;9.38;;;22.40;62.10;;;;;;4965421;28;90801;-88
2022/10/08 11:06:12;;;;;;;43.03;9.00;;;22.40;63.20;;;;;;4974153;28;88440;-88
2022/10/08 11:08:42;;;;;;;51.50;9.70;;;22.40;61.80;;;;;;4976364;28;87429;-89
2022/10/08 11:11:27;;;;;;;60.35;10.50;;;22.40;62.90;;;;;;4958985;28;91242;-89
2022/10/08 11:14:10;;;;;;;51.17;9.50;;;22.30;63.20;;;;;;4974551;28;88575;-90
2022/10/08 11:16:54;;;;;;;52.35;9.35;;;22.30;64.40;;;;;;4975339;28;87032;-90
2022/10/08 11:19:46;;;;;;;46.75;8.13;;;22.30;64.60;;;;;;4973567;28;89424;-90
2022/10/08 11:22:29;;;;;;;48.25;9.02;;;22.40;65.10;;;;;;4974161;28;91612;-88
2022/10/08 11:25:18;;;;;;;52.58;10.07;;;22.40;65.20;;;;;;4972557;28;88026;-88
2022/10/08 11:27:59;;;;;;;48.80;9.60;;;22.50;65.40;;;;;;4958437;28;86988;-89
2022/10/08 11:30:54;;;;;;;44.42;8.48;;;22.60;65.50;;;;;;4957258;28;87429;-87
2022/10/08 11:33:20;;;;;;;39.38;8.68;;;22.60;63.90;;;;;;4957621;28;88695;-90
2022/10/08 11:36:09;;;;;;;46.97;8.27;;;22.60;64.40;;;;;;4958457;28;89224;-89
2022/10/08 11:38:45;;;;;;;38.53;7.93;;;22.70;64.20;;;;;;4958158;28;87389;-90
2022/10/08 11:41:24;;;;;;;42.35;8.80;;;22.60;64.50;;;;;;4957747;28;86825;-87
2022/10/08 11:44:01;;;;;;;40.45;8.07;;;22.60;64.90;;;;;;4947132;28;88667;-90
2022/10/08 11:46:30;;;;;;;47.83;8.95;;;22.60;65.20;;;;;;4972370;28;89846;-89
2022/10/08 11:48:56;;;;;;;51.63;9.00;;;22.60;65.60;;;;;;4958383;28;87476;-89
2022/10/08 11:51:43;;;;;;;46.35;8.45;;;22.60;64.80;;;;;;4959040;28;87398;-90
2022/10/08 11:54:14;;;;;;;39.97;7.43;;;22.80;65.30;;;;;;4936799;28;88218;-85
2022/10/08 11:56:46;;;;;;;35.13;7.65;;;22.80;62.70;;;;;;4939529;28;88299;-87
2022/10/08 11:59:42;;;;;;;32.97;6.60;;;22.80;63.00;;;;;;4937263;28;88086;-86
2022/10/08 12:02:25;;;;;;;28.00;5.57;;;22.70;62.60;;;;;;4884169;28;91053;-86
2022/10/08 12:04:53;;;;;;;38.03;6.43;;;22.60;62.30;;;;;;4899958;28;88762;-86
2022/10/08 12:07:35;;;;;;;37.47;7.30;;;22.50;62.90;;;;;;4900373;28;87613;-85
2022/10/08 12:10:06;;;;;;;29.48;7.07;;;22.40;63.10;;;;;;4899627;28;87537;-86
2022/10/08 12:12:50;;;;;;;33.45;6.55;;;22.40;63.00;;;;;;4899680;28;87438;-86
2022/10/08 12:15:24;;;;;;;30.10;6.57;;;22.30;63.10;;;;;;4883547;28;91775;-86
2022/10/08 12:18:01;;;;;;;28.75;5.90;;;22.30;63.20;;;;;;4884100;28;89282;-86
2022/10/08 12:20:33;;;;;;;35.70;6.10;;;22.20;63.30;;;;;;4897826;28;86860;-86
2022/10/08 12:23:11;;;;;;;24.33;5.82;;;22.20;63.40;;;;;;4883267;28;90861;-86
2022/10/08 12:25:39;;;;;;;25.20;5.73;;;22.20;63.40;;;;;;4898410;28;88432;-86
2022/10/08 12:28:19;;;;;;;33.40;6.97;;;22.20;63.50;;;;;;4899600;28;89396;-86
2022/10/08 12:30:53;;;;;;;40.25;6.85;;;22.20;63.30;;;;;;4905054;28;87295;-86
2022/10/08 12:33:20;;;;;;;25.17;6.13;;;22.20;63.50;;;;;;4919142;28;87381;-86
2022/10/08 12:35:51;;;;;;;29.33;6.35;;;22.10;63.40;;;;;;4919432;28;88635;-86
2022/10/08 12:38:51;;;;;;;22.08;5.93;;;22.10;63.40;;;;;;4927987;28;87701;-86
2022/10/08 12:41:51;;;;;;;28.02;6.47;;;22.10;63.50;;;;;;4959791;28;87516;-86
2022/10/08 12:44:42;;;;;;;24.55;5.70;;;22.10;63.50;;;;;;4960385;28;87498;-86
2022/10/08 12:47:20;;;;;;;26.50;5.60;;;22.10;63.50;;;;;;4960025;28;88772;-86
2022/10/08 12:49:52;;;;;;;22.48;6.15;;;22.00;63.60;;;;;;4974459;28;90475;-85
2022/10/08 12:52:21;;;;;;;25.85;6.45;;;22.00;63.90;;;;;;4959219;28;88153;-86
2022/10/08 12:54:53;;;;;;;26.48;5.80;;;21.90;63.80;;;;;;4958242;28;88897;-86
2022/10/08 12:57:33;;;;;;;19.13;5.88;;;21.90;64.10;;;;;;4959725;28;87775;-85
2022/10/08 13:00:04;;;;;;;20.80;5.97;;;21.90;63.90;;;;;;4959932;28;87779;-86
2022/10/08 13:02:31;;;;;;;21.80;5.80;;;21.90;64.00;;;;;;4962230;28;87481;-86
2022/10/08 13:04:57;;;;;;;20.40;5.28;;;21.90;63.90;;;;;;4963803;28;87425;-85